Time;durP1;ratioP1;P1;durP2;ratioP2;P2;SDS_P1;SDS_P2;PMS_P1;PMS_P2;Temp;Humidity;BMP_temperature;BMP_pressure;BME280_temperature;BME280_humidity;BME280_pressure;Samples;Min_cycle;Max_cycle;Signal;HPM_P1;HPM_P2
2022/08/24 00:02:24;;;;;;;13.13;7.27;;;;;;;;;;5016104;28;20435;-66
2022/08/24 00:04:52;;;;;;;10.80;6.83;;;;;;;;;;5015897;28;20523;-67
2022/08/24 00:07:20;;;;;;;8.93;6.43;;;;;;;;;;5016058;28;20449;-67
2022/08/24 00:09:47;;;;;;;6.87;6.20;;;;;;;;;;5015856;28;20494;-66
2022/08/24 00:12:15;;;;;;;8.03;6.33;;;;;;;;;;5015645;28;20444;-66
2022/08/24 00:14:43;;;;;;;6.43;5.90;;;;;;;;;;5015169;28;20507;-66
2022/08/24 00:17:12;;;;;;;9.47;6.40;;;;;;;;;;5015506;28;20566;-66
2022/08/24 00:19:39;;;;;;;7.40;5.90;;;;;;;;;;5015094;28;20937;-66
2022/08/24 00:22:07;;;;;;;7.53;6.73;;;;;;;;;;5015798;28;20796;-66
2022/08/24 00:24:34;;;;;;;8.90;6.30;;;;;;;;;;5015324;28;20475;-66
2022/08/24 00:27:01;;;;;;;9.00;5.90;;;;;;;;;;5015003;28;20526;-66
2022/08/24 00:29:28;;;;;;;6.47;5.87;;;;;;;;;;5015237;28;20530;-67
2022/08/24 00:31:56;;;;;;;6.57;5.50;;;;;;;;;;5014292;28;20812;-66
2022/08/24 00:34:25;;;;;;;6.73;6.00;;;;;;;;;;5015268;28;20479;-66
2022/08/24 00:36:53;;;;;;;8.70;6.20;;;;;;;;;;5014840;28;20501;-67
2022/08/24 00:41:56;;;;;;;7.00;5.23;;;;;;;;;;4934535;23;20825;-66
2022/08/24 00:44:23;;;;;;;7.30;5.80;;;;;;;;;;5054493;28;20436;-66
2022/08/24 00:46:52;;;;;;;7.03;5.10;;;;;;;;;;5054379;28;20960;-66
2022/08/24 00:49:22;;;;;;;7.03;5.53;;;;;;;;;;5054763;28;20537;-66
2022/08/24 00:51:55;;;;;;;7.33;5.20;;;;;;;;;;5054668;28;20843;-66
2022/08/24 00:54:23;;;;;;;6.60;5.23;;;;;;;;;;5054351;28;20425;-66
2022/08/24 00:56:52;;;;;;;8.30;6.40;;;;;;;;;;5054131;28;21017;-66
2022/08/24 00:59:22;;;;;;;6.13;5.53;;;;;;;;;;5054976;28;20480;-66
2022/08/24 01:01:50;;;;;;;12.73;5.37;;;;;;;;;;5054066;28;20473;-66
2022/08/24 01:04:20;;;;;;;6.97;5.10;;;;;;;;;;5054706;28;20524;-66
2022/08/24 01:06:48;;;;;;;5.83;4.73;;;;;;;;;;5054634;28;20440;-66
2022/08/24 01:09:17;;;;;;;5.83;4.50;;;;;;;;;;5054319;28;20446;-66
2022/08/24 01:11:44;;;;;;;5.87;5.40;;;;;;;;;;5053771;28;20532;-66
2022/08/24 01:14:12;;;;;;;9.30;5.63;;;;;;;;;;5054449;28;20528;-66
2022/08/24 01:19:30;;;;;;;5.63;5.00;;;;;;;;;;5054029;28;20451;-66
2022/08/24 01:22:03;;;;;;;7.90;6.23;;;;;;;;;;5053757;28;20495;-66
2022/08/24 01:24:32;;;;;;;6.07;5.47;;;;;;;;;;5054314;28;20461;-66
2022/08/24 01:26:59;;;;;;;6.90;5.70;;;;;;;;;;5054119;28;20442;-66
2022/08/24 01:29:30;;;;;;;8.87;6.20;;;;;;;;;;5054010;28;20440;-66
2022/08/24 01:31:57;;;;;;;8.20;5.70;;;;;;;;;;5054105;28;20426;-66
2022/08/24 01:34:25;;;;;;;6.17;5.60;;;;;;;;;;5053937;28;20536;-66
2022/08/24 01:36:54;;;;;;;8.70;5.57;;;;;;;;;;5053695;28;20550;-67
2022/08/24 01:39:25;;;;;;;8.90;5.77;;;;;;;;;;5053548;28;20441;-67
2022/08/24 01:41:54;;;;;;;7.33;5.53;;;;;;;;;;5053170;28;20481;-66
2022/08/24 01:44:23;;;;;;;8.70;6.23;;;;;;;;;;5053948;28;20504;-66
2022/08/24 01:46:52;;;;;;;9.40;5.43;;;;;;;;;;5053301;28;20456;-67
2022/08/24 01:49:20;;;;;;;7.13;6.00;;;;;;;;;;5053399;28;20441;-66
2022/08/24 01:51:47;;;;;;;6.73;5.60;;;;;;;;;;5053223;28;20449;-66
2022/08/24 01:54:15;;;;;;;9.17;5.67;;;;;;;;;;5053628;28;20441;-66
2022/08/24 01:56:43;;;;;;;6.17;5.63;;;;;;;;;;5053383;28;20575;-66
2022/08/24 01:59:12;;;;;;;7.80;5.70;;;;;;;;;;5053241;28;21033;-66
2022/08/24 02:01:41;;;;;;;9.17;6.93;;;;;;;;;;5053440;28;20443;-66
2022/08/24 02:04:09;;;;;;;8.73;5.73;;;;;;;;;;5053219;28;20477;-66
2022/08/24 02:06:36;;;;;;;9.70;5.67;;;;;;;;;;5053348;28;20451;-66
2022/08/24 02:09:03;;;;;;;6.13;5.30;;;;;;;;;;5053474;28;20465;-66
2022/08/24 02:11:31;;;;;;;8.07;5.57;;;;;;;;;;5053410;28;20475;-66
2022/08/24 02:13:58;;;;;;;8.60;5.67;;;;;;;;;;5053041;28;20437;-66
2022/08/24 02:16:27;;;;;;;5.80;5.30;;;;;;;;;;5053228;28;20447;-66
2022/08/24 02:18:55;;;;;;;8.53;5.27;;;;;;;;;;5053722;28;20440;-66
2022/08/24 02:21:22;;;;;;;8.73;6.03;;;;;;;;;;5052924;28;20445;-66
2022/08/24 02:23:49;;;;;;;6.03;5.53;;;;;;;;;;5053290;28;20441;-66
2022/08/24 02:26:17;;;;;;;7.73;5.87;;;;;;;;;;5053279;28;20531;-66
2022/08/24 02:28:44;;;;;;;6.70;5.97;;;;;;;;;;5052849;28;20445;-66
2022/08/24 02:31:12;;;;;;;6.90;5.47;;;;;;;;;;5053262;28;20808;-66
2022/08/24 02:33:41;;;;;;;10.03;6.63;;;;;;;;;;5052838;28;20445;-66
2022/08/24 02:36:09;;;;;;;8.30;7.30;;;;;;;;;;5052917;28;21113;-66
2022/08/24 02:38:36;;;;;;;7.97;6.43;;;;;;;;;;5052752;28;20481;-66
2022/08/24 02:41:04;;;;;;;7.10;5.77;;;;;;;;;;5052828;28;20454;-66
2022/08/24 02:43:31;;;;;;;10.60;6.20;;;;;;;;;;5052700;28;20476;-66
2022/08/24 02:45:59;;;;;;;10.90;6.80;;;;;;;;;;5053197;28;20583;-66
2022/08/24 02:48:26;;;;;;;6.93;6.33;;;;;;;;;;5052668;28;20536;-66
2022/08/24 02:50:54;;;;;;;8.90;5.80;;;;;;;;;;5052737;28;20437;-66
2022/08/24 02:53:23;;;;;;;11.00;6.43;;;;;;;;;;5052665;28;20532;-66
2022/08/24 02:55:51;;;;;;;8.23;7.20;;;;;;;;;;5056428;28;20480;-66
2022/08/24 02:58:18;;;;;;;9.10;6.90;;;;;;;;;;5056697;28;20474;-66
2022/08/24 03:00:46;;;;;;;12.23;6.77;;;;;;;;;;5056391;28;20488;-66
2022/08/24 03:03:14;;;;;;;9.63;6.43;;;;;;;;;;5056939;28;20509;-66
2022/08/24 03:05:41;;;;;;;9.80;6.60;;;;;;;;;;5056706;28;20445;-66
2022/08/24 03:08:10;;;;;;;8.10;7.30;;;;;;;;;;5056517;28;20447;-66
2022/08/24 03:10:37;;;;;;;8.80;6.90;;;;;;;;;;5056570;28;20535;-66
2022/08/24 03:13:04;;;;;;;8.17;7.30;;;;;;;;;;5056590;28;20461;-67
2022/08/24 03:15:32;;;;;;;15.00;7.97;;;;;;;;;;5057118;28;20533;-66
2022/08/24 03:17:59;;;;;;;9.13;7.47;;;;;;;;;;5055987;28;20479;-66
2022/08/24 03:20:26;;;;;;;10.30;7.13;;;;;;;;;;5056382;28;20443;-66
2022/08/24 03:22:54;;;;;;;8.63;7.90;;;;;;;;;;5055961;28;20541;-66
2022/08/24 03:25:25;;;;;;;8.50;7.60;;;;;;;;;;5056295;28;20474;-66
2022/08/24 03:27:53;;;;;;;9.63;8.87;;;;;;;;;;5055941;28;20440;-66
2022/08/24 03:30:21;;;;;;;11.10;8.63;;;;;;;;;;5055929;28;20531;-66
2022/08/24 03:32:49;;;;;;;12.40;8.60;;;;;;;;;;5055760;28;20440;-66
2022/08/24 03:35:17;;;;;;;12.73;9.07;;;;;;;;;;5056142;28;20443;-66
2022/08/24 03:37:44;;;;;;;9.23;8.40;;;;;;;;;;5055988;28;21006;-66
2022/08/24 03:40:13;;;;;;;11.27;8.93;;;;;;;;;;5056336;28;20438;-66
2022/08/24 03:42:41;;;;;;;10.07;9.17;;;;;;;;;;5055816;28;20644;-65
2022/08/24 03:45:09;;;;;;;11.77;8.80;;;;;;;;;;5055646;28;20443;-66
2022/08/24 03:47:37;;;;;;;16.47;10.37;;;;;;;;;;5043225;28;20526;-67
2022/08/24 03:50:05;;;;;;;10.57;9.63;;;;;;;;;;5035962;28;20524;-66
2022/08/24 03:52:34;;;;;;;11.10;10.03;;;;;;;;;;5035848;28;20444;-67
2022/08/24 03:55:01;;;;;;;10.17;9.27;;;;;;;;;;5035806;28;20498;-66
2022/08/24 03:57:28;;;;;;;11.00;10.00;;;;;;;;;;5036142;28;20831;-67
2022/08/24 03:59:57;;;;;;;11.60;10.60;;;;;;;;;;5035330;28;20506;-67
2022/08/24 04:02:25;;;;;;;13.30;10.40;;;;;;;;;;5035718;28;20454;-66
2022/08/24 04:04:52;;;;;;;13.43;11.90;;;;;;;;;;5035379;28;20454;-66
2022/08/24 04:07:20;;;;;;;12.20;11.10;;;;;;;;;;5035934;28;20447;-66
2022/08/24 04:09:47;;;;;;;12.77;11.63;;;;;;;;;;5035483;28;20437;-66
2022/08/24 04:12:14;;;;;;;12.07;10.87;;;;;;;;;;5036057;28;20452;-66
2022/08/24 04:14:43;;;;;;;14.90;10.30;;;;;;;;;;5035458;28;20524;-67
2022/08/24 04:17:11;;;;;;;12.70;11.40;;;;;;;;;;5035149;28;20938;-67
2022/08/24 04:19:56;;;;;;;12.80;10.40;;;;;;;;;;5034980;28;20523;-66
2022/08/24 04:22:23;;;;;;;11.47;10.33;;;;;;;;;;5035066;28;20431;-67
2022/08/24 04:24:50;;;;;;;17.47;11.03;;;;;;;;;;5034889;28;20540;-66
2022/08/24 04:27:18;;;;;;;14.77;11.40;;;;;;;;;;5035002;28;20534;-66
2022/08/24 04:29:45;;;;;;;15.23;12.50;;;;;;;;;;5034806;28;20929;-66
2022/08/24 04:32:15;;;;;;;11.33;10.23;;;;;;;;;;5035241;28;20536;-66
2022/08/24 04:34:42;;;;;;;12.20;10.90;;;;;;;;;;5035324;28;20456;-66
2022/08/24 04:37:09;;;;;;;11.90;10.00;;;;;;;;;;5034625;28;20479;-66
2022/08/24 04:39:36;;;;;;;16.50;10.00;;;;;;;;;;5034548;28;20534;-66
2022/08/24 04:42:04;;;;;;;14.33;9.83;;;;;;;;;;5034869;28;20680;-66
2022/08/24 04:44:31;;;;;;;11.17;8.80;;;;;;;;;;5034763;28;20866;-66
2022/08/24 04:47:00;;;;;;;10.67;9.57;;;;;;;;;;5034625;28;20531;-66
2022/08/24 04:49:29;;;;;;;10.80;9.80;;;;;;;;;;5035494;28;20448;-67
2022/08/24 04:51:57;;;;;;;14.70;9.77;;;;;;;;;;5035559;28;20451;-67
2022/08/24 04:54:25;;;;;;;13.33;9.43;;;;;;;;;;5034648;28;20889;-66
2022/08/24 04:56:52;;;;;;;12.20;10.10;;;;;;;;;;5034583;28;20490;-67
2022/08/24 04:59:19;;;;;;;12.97;10.73;;;;;;;;;;5034472;28;21044;-66
2022/08/24 05:01:47;;;;;;;11.60;10.40;;;;;;;;;;5034573;28;20444;-66
2022/08/24 05:04:14;;;;;;;10.83;9.80;;;;;;;;;;5034049;28;20546;-66
2022/08/24 05:06:43;;;;;;;11.13;10.13;;;;;;;;;;5034771;28;20857;-66
2022/08/24 05:09:11;;;;;;;14.70;10.97;;;;;;;;;;5034726;28;20752;-66
2022/08/24 05:11:40;;;;;;;14.40;11.40;;;;;;;;;;5034396;28;20476;-66
2022/08/24 05:14:07;;;;;;;19.30;12.47;;;;;;;;;;5033858;28;20442;-66
2022/08/24 05:16:36;;;;;;;17.83;11.77;;;;;;;;;;5033551;28;20862;-67
2022/08/24 05:19:03;;;;;;;12.97;10.93;;;;;;;;;;5033543;28;20483;-66
2022/08/24 05:21:31;;;;;;;12.70;11.60;;;;;;;;;;5034472;28;20503;-68
2022/08/24 05:23:59;;;;;;;16.80;12.00;;;;;;;;;;5034261;28;20519;-66
2022/08/24 05:26:27;;;;;;;11.80;10.67;;;;;;;;;;5034090;28;20533;-67
2022/08/24 05:28:55;;;;;;;15.77;12.30;;;;;;;;;;5034536;28;20505;-66
2022/08/24 05:31:24;;;;;;;14.13;11.20;;;;;;;;;;5033704;28;21020;-65
2022/08/24 05:33:51;;;;;;;15.10;13.00;;;;;;;;;;5034504;28;20448;-65
2022/08/24 05:36:20;;;;;;;14.53;12.20;;;;;;;;;;5033848;28;20486;-65
2022/08/24 05:38:47;;;;;;;17.97;12.80;;;;;;;;;;5033783;28;20808;-65
2022/08/24 05:41:16;;;;;;;15.60;12.70;;;;;;;;;;5033720;28;20466;-65
2022/08/24 05:43:43;;;;;;;15.47;12.97;;;;;;;;;;5034009;28;20558;-65
2022/08/24 05:46:10;;;;;;;12.70;11.60;;;;;;;;;;5033395;28;20493;-65
2022/08/24 05:48:38;;;;;;;12.33;11.23;;;;;;;;;;5033411;28;20537;-66
2022/08/24 05:51:06;;;;;;;20.93;11.90;;;;;;;;;;5033389;28;20443;-65
2022/08/24 05:53:33;;;;;;;28.13;17.53;;;;;;;;;;5034219;28;20784;-65
2022/08/24 05:56:03;;;;;;;17.03;15.27;;;;;;;;;;5033719;28;20851;-66
2022/08/24 05:58:31;;;;;;;20.03;12.90;;;;;;;;;;5033197;28;20484;-67
2022/08/24 06:00:59;;;;;;;17.40;12.73;;;;;;;;;;5033350;28;20454;-66
2022/08/24 06:03:26;;;;;;;16.57;13.80;;;;;;;;;;5033217;28;20456;-66
2022/08/24 06:05:53;;;;;;;14.40;13.07;;;;;;;;;;5033456;28;20835;-66
2022/08/24 06:08:21;;;;;;;14.33;12.80;;;;;;;;;;5033195;28;20966;-66
2022/08/24 06:10:48;;;;;;;14.77;13.23;;;;;;;;;;5033229;28;20442;-66
2022/08/24 06:13:16;;;;;;;18.83;12.67;;;;;;;;;;5033236;28;20440;-66
2022/08/24 06:15:45;;;;;;;17.43;12.80;;;;;;;;;;5032967;28;21002;-66
2022/08/24 06:18:12;;;;;;;13.90;12.47;;;;;;;;;;5033847;28;20486;-66
2022/08/24 06:20:41;;;;;;;15.57;13.90;;;;;;;;;;5033296;28;20531;-67
2022/08/24 06:23:08;;;;;;;19.10;14.83;;;;;;;;;;5033045;28;20444;-66
2022/08/24 06:28:24;;;;;;;13.87;12.33;;;;;;;;;;5034421;28;20448;-66
2022/08/24 06:31:01;;;;;;;14.20;12.67;;;;;;;;;;5037292;28;20440;-66
2022/08/24 06:33:28;;;;;;;18.33;13.87;;;;;;;;;;5036998;28;20486;-66
2022/08/24 06:35:55;;;;;;;20.77;13.07;;;;;;;;;;5037207;28;20499;-66
2022/08/24 06:38:22;;;;;;;14.60;13.00;;;;;;;;;;5037176;28;20484;-66
2022/08/24 06:40:50;;;;;;;16.90;13.73;;;;;;;;;;5036747;28;20968;-66
2022/08/24 06:43:17;;;;;;;14.93;13.53;;;;;;;;;;5036761;28;20487;-66
2022/08/24 06:45:45;;;;;;;15.57;12.67;;;;;;;;;;5036677;28;20465;-66
2022/08/24 06:48:13;;;;;;;17.70;13.20;;;;;;;;;;5036718;28;20529;-66
2022/08/24 06:50:41;;;;;;;15.20;13.50;;;;;;;;;;5037146;28;20430;-66
2022/08/24 06:53:08;;;;;;;20.67;13.20;;;;;;;;;;5037291;28;20442;-66
2022/08/24 06:55:35;;;;;;;25.13;13.40;;;;;;;;;;5036740;28;20537;-66
2022/08/24 06:58:03;;;;;;;17.03;11.93;;;;;;;;;;5036871;28;20866;-66
2022/08/24 07:00:30;;;;;;;19.80;11.60;;;;;;;;;;5036792;28;20449;-66
2022/08/24 07:02:58;;;;;;;13.57;12.20;;;;;;;;;;5036765;28;20518;-66
2022/08/24 07:05:26;;;;;;;18.60;12.70;;;;;;;;;;5036338;28;20474;-66
2022/08/24 07:07:54;;;;;;;16.37;12.07;;;;;;;;;;5036364;28;20954;-66
2022/08/24 07:10:21;;;;;;;25.37;11.90;;;;;;;;;;5036686;28;20450;-66
2022/08/24 07:12:48;;;;;;;23.50;13.00;;;;;;;;;;5036132;28;20454;-66
2022/08/24 07:15:15;;;;;;;15.37;11.53;;;;;;;;;;5036053;28;20456;-66
2022/08/24 07:17:42;;;;;;;15.73;11.60;;;;;;;;;;5036820;28;20629;-66
2022/08/24 07:20:11;;;;;;;22.53;12.33;;;;;;;;;;5036109;28;20513;-66
2022/08/24 07:22:39;;;;;;;13.87;12.30;;;;;;;;;;5036364;28;20438;-66
2022/08/24 07:25:07;;;;;;;13.77;11.17;;;;;;;;;;5036381;28;20533;-66
2022/08/24 07:27:35;;;;;;;13.43;11.30;;;;;;;;;;5036706;28;20441;-66
2022/08/24 07:30:02;;;;;;;18.83;12.07;;;;;;;;;;5035996;28;20462;-66
2022/08/24 07:32:29;;;;;;;16.77;12.03;;;;;;;;;;5036127;28;20496;-66
2022/08/24 07:34:56;;;;;;;20.63;11.90;;;;;;;;;;5036124;28;20953;-66
2022/08/24 07:37:23;;;;;;;17.10;11.20;;;;;;;;;;5036103;28;20474;-66
2022/08/24 07:39:52;;;;;;;16.40;11.33;;;;;;;;;;5035107;28;20553;-66
2022/08/24 07:42:19;;;;;;;15.97;10.20;;;;;;;;;;5035948;28;20569;-65
2022/08/24 07:44:46;;;;;;;26.33;10.93;;;;;;;;;;5035681;28;20443;-65
2022/08/24 07:47:13;;;;;;;16.00;10.03;;;;;;;;;;5036033;28;20538;-65
2022/08/24 07:49:41;;;;;;;16.40;10.90;;;;;;;;;;5036090;28;20848;-65
2022/08/24 07:52:09;;;;;;;17.47;9.23;;;;;;;;;;5035872;28;20436;-65
2022/08/24 07:54:36;;;;;;;10.67;9.67;;;;;;;;;;5035527;28;20948;-65
2022/08/24 07:57:06;;;;;;;11.67;8.73;;;;;;;;;;5035508;28;20878;-65
2022/08/24 07:59:33;;;;;;;11.80;8.83;;;;;;;;;;5035663;28;20572;-65
2022/08/24 08:02:00;;;;;;;16.00;9.07;;;;;;;;;;5035287;28;20445;-65
2022/08/24 08:04:28;;;;;;;13.20;8.87;;;;;;;;;;5035569;28;20436;-65
2022/08/24 08:06:55;;;;;;;10.40;7.97;;;;;;;;;;5035368;28;20968;-65
2022/08/24 08:09:23;;;;;;;12.20;8.00;;;;;;;;;;5035629;28;20531;-65
2022/08/24 08:11:50;;;;;;;12.97;7.40;;;;;;;;;;5035419;28;20540;-65
2022/08/24 08:14:19;;;;;;;9.20;8.30;;;;;;;;;;5035334;28;20955;-65
2022/08/24 08:16:46;;;;;;;14.17;7.43;;;;;;;;;;5034620;28;20495;-65
2022/08/24 08:19:13;;;;;;;14.40;8.40;;;;;;;;;;5035338;28;20470;-65
2022/08/24 08:24:29;;;;;;;14.13;6.67;;;;;;;;;;5035270;28;20451;-65
2022/08/24 08:26:58;;;;;;;16.03;7.60;;;;;;;;;;5035235;28;20973;-65
2022/08/24 08:29:26;;;;;;;10.23;7.00;;;;;;;;;;5035421;28;20447;-65
2022/08/24 08:31:54;;;;;;;13.90;7.17;;;;;;;;;;5034829;28;20487;-65
2022/08/24 08:34:21;;;;;;;14.77;7.17;;;;;;;;;;5034768;28;20448;-65
2022/08/24 08:36:49;;;;;;;9.50;7.10;;;;;;;;;;5035001;28;20532;-65
2022/08/24 08:39:18;;;;;;;15.80;6.40;;;;;;;;;;5034955;28;20993;-65
2022/08/24 08:42:13;;;;;;;10.30;6.73;;;;;;;;;;5034733;28;20955;-65
2022/08/24 08:44:58;;;;;;;10.30;6.40;;;;;;;;;;5035147;28;20433;-65
2022/08/24 08:47:42;;;;;;;15.30;6.70;;;;;;;;;;5034363;28;20473;-65
2022/08/24 08:50:14;;;;;;;8.53;5.80;;;;;;;;;;5034519;28;20443;-65
2022/08/24 08:53:01;;;;;;;10.70;5.57;;;;;;;;;;5033995;28;20451;-65
2022/08/24 08:55:31;;;;;;;10.70;6.20;;;;;;;;;;5035189;28;20783;-65
2022/08/24 08:58:12;;;;;;;7.30;5.70;;;;;;;;;;5034655;28;20474;-65
2022/08/24 09:01:00;;;;;;;11.03;6.10;;;;;;;;;;5034248;28;20461;-65
2022/08/24 09:03:37;;;;;;;6.20;5.60;;;;;;;;;;5034108;28;20435;-66
2022/08/24 09:06:17;;;;;;;6.80;6.27;;;;;;;;;;5034372;28;20978;-65
2022/08/24 09:08:57;;;;;;;9.10;5.40;;;;;;;;;;5034422;28;20436;-66
2022/08/24 09:11:31;;;;;;;12.37;5.90;;;;;;;;;;5034497;28;20417;-66
2022/08/24 09:14:13;;;;;;;11.80;6.70;;;;;;;;;;5034349;28;20500;-66
2022/08/24 09:16:49;;;;;;;7.17;5.03;;;;;;;;;;5001605;28;20998;-66
2022/08/24 09:19:29;;;;;;;8.57;5.47;;;;;;;;;;5034210;28;20441;-66
2022/08/24 09:22:04;;;;;;;6.20;5.60;;;;;;;;;;5034265;28;21011;-66
2022/08/24 09:24:39;;;;;;;7.37;5.10;;;;;;;;;;5034435;28;20525;-66
2022/08/24 09:27:14;;;;;;;11.00;6.93;;;;;;;;;;5034219;28;20499;-67
2022/08/24 09:29:49;;;;;;;4.73;4.33;;;;;;;;;;5034181;28;20439;-66
2022/08/24 09:32:26;;;;;;;7.10;4.00;;;;;;;;;;5034461;28;20501;-66
2022/08/24 09:34:56;;;;;;;8.40;4.53;;;;;;;;;;5034286;28;20431;-66
2022/08/24 09:37:34;;;;;;;4.20;3.73;;;;;;;;;;5034047;28;20774;-66
2022/08/24 09:40:04;;;;;;;5.13;4.47;;;;;;;;;;5034310;28;20564;-66
2022/08/24 09:42:58;;;;;;;8.23;4.30;;;;;;;;;;5033782;28;20506;-66
2022/08/24 09:45:39;;;;;;;5.97;3.50;;;;;;;;;;5034619;28;20432;-66
2022/08/24 09:48:29;;;;;;;5.93;3.63;;;;;;;;;;5034002;28;20434;-66
2022/08/24 09:51:06;;;;;;;6.43;3.17;;;;;;;;;;5033880;28;20475;-66
2022/08/24 09:53:48;;;;;;;9.50;3.87;;;;;;;;;;5033751;28;20510;-66
2022/08/24 09:56:20;;;;;;;8.00;4.27;;;;;;;;;;5033410;28;20945;-66
2022/08/24 09:58:56;;;;;;;6.87;3.23;;;;;;;;;;5033624;28;20832;-66
2022/08/24 10:01:29;;;;;;;7.87;4.10;;;;;;;;;;5034361;28;20403;-66
2022/08/24 10:04:06;;;;;;;4.70;3.10;;;;;;;;;;5033058;28;20978;-66
2022/08/24 10:06:41;;;;;;;5.47;3.03;;;;;;;;;;5033769;28;20408;-63
2022/08/24 10:09:15;;;;;;;6.23;3.30;;;;;;;;;;5033730;28;20442;-65
2022/08/24 10:11:46;;;;;;;4.17;3.20;;;;;;;;;;5033521;28;20427;-66
2022/08/24 10:14:17;;;;;;;3.20;2.83;;;;;;;;;;5033582;28;20422;-66
2022/08/24 10:16:49;;;;;;;5.50;3.23;;;;;;;;;;5033516;28;20504;-66
2022/08/24 10:19:31;;;;;;;9.93;2.97;;;;;;;;;;5033330;28;20527;-66
2022/08/24 10:22:05;;;;;;;3.40;2.67;;;;;;;;;;5033788;28;20441;-65
2022/08/24 10:24:42;;;;;;;6.80;3.33;;;;;;;;;;5033484;28;20435;-65
2022/08/24 10:27:19;;;;;;;5.63;3.60;;;;;;;;;;5033947;28;20475;-65
2022/08/24 10:29:56;;;;;;;3.17;2.87;;;;;;;;;;5033013;28;20923;-66
2022/08/24 10:32:32;;;;;;;4.87;3.47;;;;;;;;;;5033912;28;20412;-66
2022/08/24 10:35:02;;;;;;;3.90;3.20;;;;;;;;;;5033286;28;20839;-66
2022/08/24 10:37:41;;;;;;;5.57;2.70;;;;;;;;;;5033944;28;20448;-65
2022/08/24 10:40:31;;;;;;;8.53;3.20;;;;;;;;;;5033112;28;20806;-65
2022/08/24 10:43:34;;;;;;;5.37;2.60;;;;;;;;;;5018230;28;20781;-65
2022/08/24 10:46:24;;;;;;;2.80;2.30;;;;;;;;;;5033307;28;20404;-65
2022/08/24 10:49:07;;;;;;;4.10;2.60;;;;;;;;;;5033030;28;20419;-65
2022/08/24 10:51:41;;;;;;;5.47;2.40;;;;;;;;;;5033197;28;20552;-66
2022/08/24 10:54:12;;;;;;;3.53;2.47;;;;;;;;;;5033421;28;20446;-65
2022/08/24 10:56:41;;;;;;;6.23;5.10;;;;;;;;;;5033318;28;20474;-65
2022/08/24 10:59:17;;;;;;;5.03;2.60;;;;;;;;;;5032884;28;20535;-65
2022/08/24 11:02:00;;;;;;;3.63;3.33;;;;;;;;;;5033129;28;20861;-65
2022/08/24 11:04:29;;;;;;;2.83;2.53;;;;;;;;;;5033085;28;20494;-65
2022/08/24 11:07:04;;;;;;;4.63;2.63;;;;;;;;;;5033326;28;20788;-65
2022/08/24 11:09:44;;;;;;;3.67;2.80;;;;;;;;;;5033257;28;20480;-65
2022/08/24 11:12:18;;;;;;;3.00;2.40;;;;;;;;;;5033112;28;20518;-66
2022/08/24 11:14:47;;;;;;;3.00;2.50;;;;;;;;;;5033079;28;20521;-65
2022/08/24 11:17:16;;;;;;;3.50;3.20;;;;;;;;;;5036534;28;20467;-65
2022/08/24 11:19:44;;;;;;;3.60;3.13;;;;;;;;;;5036216;28;20836;-66
2022/08/24 11:22:24;;;;;;;2.77;2.50;;;;;;;;;;5036553;28;20502;-67
2022/08/24 11:24:55;;;;;;;3.77;2.63;;;;;;;;;;5036408;28;20522;-65
2022/08/24 11:27:27;;;;;;;11.53;3.50;;;;;;;;;;5037080;28;20781;-65
2022/08/24 11:29:57;;;;;;;4.63;2.53;;;;;;;;;;5036200;28;20414;-65
2022/08/24 11:32:29;;;;;;;2.90;2.70;;;;;;;;;;5036770;28;20420;-65
2022/08/24 11:35:01;;;;;;;4.50;2.67;;;;;;;;;;5036327;28;20915;-65
2022/08/24 11:37:31;;;;;;;5.47;2.73;;;;;;;;;;5036586;28;20401;-65
2022/08/24 11:40:00;;;;;;;4.17;2.60;;;;;;;;;;5035828;28;20955;-64
2022/08/24 11:42:34;;;;;;;3.50;2.90;;;;;;;;;;5036187;28;20510;-65
2022/08/24 11:45:04;;;;;;;5.57;3.10;;;;;;;;;;5035771;28;20517;-65
2022/08/24 11:47:46;;;;;;;6.33;2.80;;;;;;;;;;5035923;28;20416;-65
2022/08/24 11:50:23;;;;;;;9.03;3.13;;;;;;;;;;5033952;28;20449;-65
2022/08/24 11:52:55;;;;;;;6.10;3.17;;;;;;;;;;5036073;28;20407;-65
2022/08/24 11:55:30;;;;;;;4.20;2.93;;;;;;;;;;5035890;28;20494;-65
2022/08/24 11:58:01;;;;;;;2.83;2.50;;;;;;;;;;5035556;28;20483;-65
2022/08/24 12:00:40;;;;;;;3.57;2.70;;;;;;;;;;5035875;28;20503;-65
2022/08/24 12:03:15;;;;;;;4.20;2.60;;;;;;;;;;5035950;28;20492;-66
2022/08/24 12:05:45;;;;;;;6.10;3.10;;;;;;;;;;5035969;28;20443;-65
2022/08/24 12:08:18;;;;;;;6.13;2.63;;;;;;;;;;5036035;28;20458;-65
2022/08/24 12:11:00;;;;;;;4.10;2.80;;;;;;;;;;5035579;28;20525;-65
2022/08/24 12:13:33;;;;;;;11.87;3.37;;;;;;;;;;5035780;28;20434;-65
2022/08/24 12:16:04;;;;;;;4.73;3.20;;;;;;;;;;5035442;28;20475;-65
2022/08/24 12:18:37;;;;;;;5.00;2.70;;;;;;;;;;5036031;28;20819;-65
2022/08/24 12:21:05;;;;;;;3.77;2.60;;;;;;;;;;5034939;28;20561;-65
2022/08/24 12:23:37;;;;;;;5.90;2.80;;;;;;;;;;5035002;28;20448;-65
2022/08/24 12:26:08;;;;;;;5.93;2.70;;;;;;;;;;5034809;28;20436;-65
2022/08/24 12:28:39;;;;;;;4.20;2.40;;;;;;;;;;5035422;28;20428;-65
2022/08/24 12:31:13;;;;;;;6.07;2.87;;;;;;;;;;5035326;28;20441;-65
2022/08/24 12:33:44;;;;;;;9.63;3.13;;;;;;;;;;5034830;28;21041;-65
2022/08/24 12:36:16;;;;;;;3.80;2.40;;;;;;;;;;5035000;28;20405;-65
2022/08/24 12:38:46;;;;;;;3.03;2.60;;;;;;;;;;5035373;28;20847;-64
2022/08/24 12:41:17;;;;;;;3.83;2.50;;;;;;;;;;5034722;28;20554;-64
2022/08/24 12:43:47;;;;;;;3.27;2.70;;;;;;;;;;5034894;28;20456;-64
2022/08/24 12:46:16;;;;;;;3.50;2.57;;;;;;;;;;5034918;28;20940;-64
2022/08/24 12:48:45;;;;;;;4.00;2.90;;;;;;;;;;5034568;28;20420;-64
2022/08/24 12:51:19;;;;;;;3.77;2.73;;;;;;;;;;5034748;28;20853;-65
2022/08/24 12:53:55;;;;;;;4.27;3.43;;;;;;;;;;5034798;28;20463;-66
2022/08/24 12:56:38;;;;;;;3.10;2.40;;;;;;;;;;5034398;28;20466;-64
2022/08/24 12:59:08;;;;;;;5.13;2.90;;;;;;;;;;5035230;28;20432;-65
2022/08/24 13:01:38;;;;;;;5.50;3.03;;;;;;;;;;5034470;28;20574;-65
2022/08/24 13:04:07;;;;;;;4.20;2.50;;;;;;;;;;5034165;28;20492;-65
2022/08/24 13:06:39;;;;;;;5.80;2.60;;;;;;;;;;5034310;28;20441;-66
2022/08/24 13:09:08;;;;;;;3.20;2.70;;;;;;;;;;5034469;28;20481;-65
2022/08/24 13:11:37;;;;;;;2.73;2.53;;;;;;;;;;5034248;28;20877;-65
2022/08/24 13:14:16;;;;;;;2.33;2.13;;;;;;;;;;5034454;28;20485;-65
2022/08/24 13:16:48;;;;;;;3.73;2.20;;;;;;;;;;5034274;28;20516;-66
2022/08/24 13:19:18;;;;;;;3.83;2.70;;;;;;;;;;5033732;28;20478;-65
2022/08/24 13:21:47;;;;;;;3.63;2.20;;;;;;;;;;5032840;28;20570;-65
2022/08/24 13:24:49;;;;;;;3.13;2.83;;;;;;;;;;5033948;28;20532;-65
2022/08/24 13:27:49;;;;;;;3.43;3.17;;;;;;;;;;5034097;28;20401;-65
2022/08/24 13:30:23;;;;;;;3.43;3.00;;;;;;;;;;5033708;28;20985;-66
2022/08/24 13:32:58;;;;;;;3.97;2.90;;;;;;;;;;5033688;28;20468;-65
2022/08/24 13:35:37;;;;;;;5.33;2.67;;;;;;;;;;5033490;28;20522;-66
2022/08/24 13:38:25;;;;;;;3.27;2.70;;;;;;;;;;5033134;28;20437;-65
2022/08/24 13:40:56;;;;;;;2.43;2.20;;;;;;;;;;5033610;28;20535;-66
2022/08/24 13:43:31;;;;;;;2.60;2.40;;;;;;;;;;5034126;28;20515;-65
2022/08/24 13:46:02;;;;;;;3.00;2.70;;;;;;;;;;5033800;28;20497;-66
2022/08/24 13:48:46;;;;;;;5.17;2.97;;;;;;;;;;5034249;28;20430;-66
2022/08/24 13:51:21;;;;;;;3.30;3.00;;;;;;;;;;5033348;28;20479;-65
2022/08/24 13:53:56;;;;;;;3.13;2.50;;;;;;;;;;5034096;28;20440;-66
2022/08/24 13:56:30;;;;;;;5.73;2.60;;;;;;;;;;5033848;28;20516;-66
2022/08/24 13:59:02;;;;;;;3.13;2.63;;;;;;;;;;5033346;28;20520;-66
2022/08/24 14:01:36;;;;;;;7.67;3.20;;;;;;;;;;5033637;28;20958;-65
2022/08/24 14:04:08;;;;;;;3.43;2.27;;;;;;;;;;5033304;28;20530;-66
2022/08/24 14:06:38;;;;;;;3.90;2.50;;;;;;;;;;5032981;28;20520;-65
2022/08/24 14:09:18;;;;;;;3.73;2.70;;;;;;;;;;5033249;28;20676;-66
2022/08/24 14:11:59;;;;;;;4.07;2.53;;;;;;;;;;5033421;28;20930;-66
2022/08/24 14:14:34;;;;;;;2.73;2.53;;;;;;;;;;5033547;28;20431;-65
2022/08/24 14:19:58;;;;;;;4.30;2.80;;;;;;;;;;5033242;28;20420;-66
2022/08/24 14:22:30;;;;;;;2.73;2.40;;;;;;;;;;5033433;28;20902;-66
2022/08/24 14:25:04;;;;;;;5.70;2.70;;;;;;;;;;5033418;28;20464;-66
2022/08/24 14:27:36;;;;;;;2.67;2.47;;;;;;;;;;5033427;28;20845;-66
2022/08/24 14:30:22;;;;;;;3.77;2.30;;;;;;;;;;5033386;28;20443;-66
2022/08/24 14:33:05;;;;;;;2.80;2.50;;;;;;;;;;5032914;28;20451;-66
2022/08/24 14:35:35;;;;;;;2.80;2.13;;;;;;;;;;5033076;28;20424;-66
2022/08/24 14:38:18;;;;;;;3.30;2.63;;;;;;;;;;5033536;28;20427;-66
2022/08/24 14:40:55;;;;;;;3.27;2.83;;;;;;;;;;5020806;28;20534;-66
2022/08/24 14:43:24;;;;;;;6.50;2.60;;;;;;;;;;5033160;28;20560;-66
2022/08/24 14:45:56;;;;;;;2.33;2.13;;;;;;;;;;5032932;28;20521;-66
2022/08/24 14:48:34;;;;;;;3.83;2.80;;;;;;;;;;5033173;28;20432;-66
2022/08/24 14:51:06;;;;;;;5.27;3.27;;;;;;;;;;5035404;28;20444;-66
2022/08/24 14:53:44;;;;;;;5.72;2.67;;;;;;;;;;5035836;28;20487;-66
2022/08/24 14:56:17;;;;;;;9.43;3.07;;;;;;;;;;5037260;28;20448;-66
2022/08/24 14:58:50;;;;;;;2.40;2.20;;;;;;;;;;5037013;28;20895;-66
2022/08/24 15:01:37;;;;;;;6.90;2.83;;;;;;;;;;5037057;28;20476;-65
2022/08/24 15:04:32;;;;;;;3.50;2.73;;;;;;;;;;5034955;28;21170;-67
2022/08/24 15:07:09;;;;;;;3.23;2.50;;;;;;;;;;4999554;28;20455;-66
2022/08/24 15:09:37;;;;;;;2.50;2.30;;;;;;;;;;5036363;28;21022;-67
2022/08/24 15:12:12;;;;;;;2.53;2.33;;;;;;;;;;5036641;28;20454;-67